Terminal Aerodrome Forecast
Issued by NWS

Home | Current Version | Previous Version | Text Only | Print | Product List | Glossary On
Versions: 1 2 3 4 5 6 7 8 9 10 11 12 13 14 15 16 17 18 19 20 21 22 23 24 25 26 27 28
131
FTUS41 KRLX 270545 CCA
TAFCKB
TAF COR
KCKB 270545Z 2706/2806 VRB02KT P6SM SCT250
     FM270900 15003KT P6SM OVC090
     FM271600 21006KT P6SM -SHRA OVC090
     FM272300 15004KT P6SM BKN080=

USA.gov is the U.S. government's official web portal to all federal, state and local government web resources and services.